Occoquan, VA (22125)

11:46 PM EDT on July 26, 2016 (GMT -0400)
Belmont Bay Drive | | Change Station

Elev 97 ft 38.66 °N, 77.24 °W | Updated 1 minute ago

Scattered Clouds
Scattered Clouds
80.8 °F
Feels Like 90 °F
N
0.6
Wind Variable Wind from North
Gusts 1.9 mph

Today
High -- | Low -- °F
--% Chance of Precip.
Yesterday
High -- | Low -- °F
Precip. -- in
Pressure 29.94 in
Visibility 10.0 miles
Clouds Few 6500 ft
Scattered Clouds 22000 ft
Heat Index 90 °F
Dew Point 81 °F
Humidity 100%
Rainfall 0.02 in
Snow Depth Not available.
6:05 AM 8:24 PM
Waning Gibbous, 48% visible
METAR KDAA 270258Z AUTO VRB01KT 10SM FEW065 SCT220 28/22 A2993 RMK AO2 LTG DSNT S SLP138 T02770216 50006
Pressure 29.94 in
Visibility 10.0 miles
Clouds Few 6500 ft
Scattered Clouds 22000 ft
Heat Index 90 °F
Dew Point 81 °F
Humidity 100%
Rainfall 0.02 in
Snow Depth Not available.
6:05 AM 8:24 PM
Waning Gibbous, 48% visible
METAR KDAA 270258Z AUTO VRB01KT 10SM FEW065 SCT220 28/22 A2993 RMK AO2 LTG DSNT S SLP138 T02770216 50006

10-Day Weather Forecast

Almanac

Astronomy

Jul. 26, 2016 Rise Set
Actual Time
Civil Twilight
Nautical Twilight
Astronomical Twilight
Moon
Length of Visible Light
Length of Day
Tomorrow will be .
, % of the Moon is Illuminated

Today's Extremes

State Highs State Lows

Community

WunderPhotos

Upload Photos

1,927,797 photos uploaded!

WunderBlog® & News

Nearby

Air Quality

  Air Quality AQ Index Pollutant
Not available.

Snow Depth

Station Depth Elevation

Earthquake Activity

City Distance Mag. Time & Date
Minimum magnitude displayed is 2.5.

Coastal Water Temperatures

Place Temperature

Stations

Nearby Weather Stations

Station Location Temp. Windchill Dew Point Humidity Wind Precip. Elev Updated Type
                   

Watches & Warnings

There are currently no watches in effect.